Time;durP1;ratioP1;P1;durP2;ratioP2;P2;SDS_P1;SDS_P2;PMS_P1;PMS_P2;Temp;Humidity;BMP_temperature;BMP_pressure;BME280_temperature;BME280_humidity;BME280_pressure;Samples;Min_cycle;Max_cycle;Signal;HPM_P1;HPM_P2
2023/07/27 00:01:17;;;;;;;2.17;1.00;;;;;;;21.74;41.39;99989.06;41644645;28;20095;-79
2023/07/27 00:21:17;;;;;;;1.35;0.73;;;;;;;21.63;41.74;99998.84;41671666;28;20382;-78
2023/07/27 00:41:18;;;;;;;1.60;0.70;;;;;;;21.55;41.35;100004.72;41659242;28;20049;-76
2023/07/27 01:21:36;;;;;;;0.80;0.77;;;;;;;21.44;42.30;100026.72;41836239;23;1280163;-75
2023/07/27 01:41:41;;;;;;;1.05;0.85;;;;;;;21.33;42.57;100016.25;41434007;28;20093;-76
2023/07/27 02:01:43;;;;;;;1.23;0.73;;;;;;;21.22;42.39;100010.06;41431569;28;20073;-75
2023/07/27 02:21:46;;;;;;;1.08;0.80;;;;;;;21.18;42.50;100016.56;41350138;28;20048;-75
2023/07/27 02:41:46;;;;;;;1.42;1.02;;;;;;;21.04;43.10;100041.38;41332152;28;20571;-75
2023/07/27 03:01:46;;;;;;;1.10;1.00;;;;;;;21.03;42.56;100049.41;41321880;28;20050;-76
2023/07/27 03:21:48;;;;;;;0.73;0.73;;;;;;;20.82;43.05;100055.47;41309543;28;20069;-76
2023/07/27 03:41:48;;;;;;;1.60;0.93;;;;;;;20.83;42.65;100087.91;41320783;28;20050;-75
2023/07/27 04:01:49;;;;;;;1.00;0.90;;;;;;;21.23;42.69;100114.44;41278394;28;21073;-74
2023/07/27 04:21:49;;;;;;;3.20;0.75;;;;;;;21.65;43.10;100113.66;41294370;28;20053;-75
2023/07/27 04:41:56;;;;;;;0.93;0.82;;;;;;;20.88;42.61;100136.56;41264048;28;20042;-85
2023/07/27 05:01:57;;;;;;;4.35;1.00;;;;;;;21.50;43.29;100142.09;41360466;28;20043;-84
2023/07/27 05:21:57;;;;;;;1.23;0.80;;;;;;;21.82;44.04;100164.13;41363755;28;21472;-82
2023/07/27 05:41:58;;;;;;;1.38;0.80;;;;;;;22.06;43.86;100192.88;41364163;28;20412;-82
2023/07/27 06:01:58;;;;;;;1.75;0.80;;;;;;;22.23;43.54;100197.56;41358873;28;20497;-85
2023/07/27 06:21:58;;;;;;;1.10;0.80;;;;;;;22.42;43.28;100195.19;41354443;28;20169;-82
2023/07/27 06:41:59;;;;;;;1.88;1.00;;;;;;;22.52;42.83;100196.91;41345201;28;20097;-82
2023/07/27 07:01:59;;;;;;;5.65;1.13;;;;;;;22.64;43.22;100207.34;41330966;28;20065;-86
2023/07/27 07:22:00;;;;;;;1.52;1.00;;;;;;;22.77;43.05;100201.88;41337830;28;20042;-87
2023/07/27 07:42:00;;;;;;;4.68;1.30;;;;;;;22.90;43.31;100201.59;41414220;28;20047;-84
2023/07/27 08:02:09;;;;;;;3.13;1.00;;;;;;;22.97;43.61;100200.94;41386259;28;20402;-85
2023/07/27 08:22:09;;;;;;;1.63;1.23;;;;;;;23.07;43.31;100193.06;41376661;28;20042;-83
2023/07/27 08:42:16;;;;;;;7.18;1.67;;;;;;;23.13;43.24;100186.38;41366758;28;20039;-75
2023/07/27 09:02:17;;;;;;;2.40;1.10;;;;;;;23.20;43.44;100190.16;41428152;28;20130;-76
2023/07/27 09:22:18;;;;;;;1.50;1.02;;;;;;;23.29;43.51;100193.78;41371737;28;20045;-77
2023/07/27 09:42:19;;;;;;;3.00;1.23;;;;;;;23.38;43.27;100186.88;41392994;28;20050;-77
2023/07/27 10:02:21;;;;;;;2.58;1.30;;;;;;;23.46;43.50;100165.84;41402676;28;20038;-78
2023/07/27 10:22:22;;;;;;;1.33;0.98;;;;;;;23.55;43.33;100149.16;41396168;28;20057;-75
2023/07/27 10:42:33;;;;;;;1.20;1.10;;;;;;;23.66;42.78;100133.16;41394111;28;20072;-77
2023/07/27 11:02:34;;;;;;;2.25;1.25;;;;;;;23.78;42.25;100109.22;41423456;28;20042;-76
2023/07/27 11:22:35;;;;;;;2.47;1.60;;;;;;;23.89;42.32;100110.81;41394393;28;20054;-77
2023/07/27 11:42:36;;;;;;;2.28;1.40;;;;;;;24.05;41.91;100100.53;41435914;28;20057;-84
2023/07/27 12:02:36;;;;;;;1.65;1.10;;;;;;;24.18;41.04;100065.81;41463999;28;20105;-87
2023/07/27 12:22:39;;;;;;;2.80;1.10;;;;;;;24.32;40.40;100050.44;41455094;28;20037;-87
2023/07/27 12:42:39;;;;;;;3.03;1.45;;;;;;;24.43;36.67;100045.75;41487466;28;20049;-83
2023/07/27 13:02:40;;;;;;;3.65;0.90;;;;;;;24.46;36.09;100036.69;41452193;28;20035;-80
2023/07/27 13:22:41;;;;;;;0.85;0.75;;;;;;;24.51;36.18;100023.84;41416201;28;20046;-82
2023/07/27 13:42:41;;;;;;;1.92;1.05;;;;;;;24.51;35.16;100004.47;41381398;28;20064;-81
2023/07/27 14:02:42;;;;;;;0.77;0.77;;;;;;;24.55;35.29;100019.91;41383893;28;20057;-81
2023/07/27 14:22:43;;;;;;;11.63;2.10;;;;;;;24.62;37.18;100005.09;41321841;28;20053;-82
2023/07/27 14:42:43;;;;;;;4.30;1.15;;;;;;;24.68;36.29;100002.84;41321305;28;20042;-74
2023/07/27 15:02:44;;;;;;;2.10;1.02;;;;;;;24.73;37.03;99989.97;41280485;28;20065;-75
2023/07/27 15:22:46;;;;;;;1.70;1.00;;;;;;;24.76;36.92;99993.16;41301073;28;20135;-78
2023/07/27 15:42:46;;;;;;;1.60;1.13;;;;;;;24.79;34.08;99976.13;41305315;28;20050;-78
2023/07/27 16:02:47;;;;;;;1.85;0.90;;;;;;;24.78;32.48;99987.72;41296068;28;20042;-83
2023/07/27 16:22:47;;;;;;;0.85;0.85;;;;;;;24.75;31.42;99969.50;41297545;28;20493;-83
2023/07/27 16:42:50;;;;;;;1.20;1.10;;;;;;;24.67;31.48;99983.50;41337287;28;20411;-84
2023/07/27 17:02:51;;;;;;;1.70;1.00;;;;;;;24.57;31.87;99972.09;41324148;28;20105;-78
2023/07/27 17:22:51;;;;;;;3.17;1.40;;;;;;;24.51;32.72;99991.25;41336957;28;20112;-87
2023/07/27 17:42:52;;;;;;;1.50;1.30;;;;;;;24.44;33.04;99986.53;41330630;28;20065;-82
2023/07/27 18:02:53;;;;;;;3.13;1.00;;;;;;;24.30;32.74;99998.50;41286339;28;20108;-79
2023/07/27 18:22:54;;;;;;;2.28;1.35;;;;;;;24.16;33.27;99992.84;41303400;28;20078;-84
2023/07/27 18:42:55;;;;;;;1.77;1.20;;;;;;;24.09;32.95;99997.91;41327559;28;20042;-81
2023/07/27 19:02:57;;;;;;;3.75;1.75;;;;;;;23.95;33.70;99999.25;41321253;28;20505;-87
2023/07/27 19:22:58;;;;;;;2.60;1.67;;;;;;;23.81;33.75;99998.72;41351740;28;20026;-86
2023/07/27 19:42:59;;;;;;;1.80;1.50;;;;;;;23.74;34.49;99983.56;41336971;28;20039;-85
2023/07/27 20:03:00;;;;;;;2.17;1.52;;;;;;;23.47;35.76;99983.41;41294545;28;20050;-80
2023/07/27 20:23:01;;;;;;;3.53;1.60;;;;;;;23.23;36.28;99978.59;41321896;28;20563;-82
2023/07/27 20:43:01;;;;;;;2.08;1.60;;;;;;;23.18;37.22;99984.28;41378832;28;20093;-79
2023/07/27 21:03:03;;;;;;;1.70;1.30;;;;;;;23.02;37.47;99986.63;41346709;28;20933;-77
2023/07/27 21:23:03;;;;;;;1.85;1.27;;;;;;;22.97;38.17;99989.72;41312644;28;20042;-82
2023/07/27 21:43:04;;;;;;;2.53;1.58;;;;;;;22.82;38.88;99991.09;41299775;28;20065;-83
2023/07/27 22:03:04;;;;;;;4.97;1.88;;;;;;;22.65;39.55;99987.34;41302221;28;20049;-75
2023/07/27 22:23:05;;;;;;;1.55;1.38;;;;;;;22.68;40.08;99990.53;41314643;28;20050;-83
2023/07/27 22:43:05;;;;;;;2.30;1.70;;;;;;;22.57;40.30;100001.25;41299854;28;20401;-85
2023/07/27 23:03:06;;;;;;;2.25;1.83;;;;;;;22.46;40.95;99988.16;41305265;28;20077;-82
2023/07/27 23:23:06;;;;;;;2.22;1.70;;;;;;;22.34;41.04;99977.69;41307020;28;20050;-83
2023/07/27 23:43:09;;;;;;;2.22;1.60;;;;;;;22.28;41.69;99980.88;41305098;28;20065;-76
